Time;durP1;ratioP1;P1;durP2;ratioP2;P2;SDS_P1;SDS_P2;PMS_P1;PMS_P2;Temp;Humidity;BMP_temperature;BMP_pressure;BME280_temperature;BME280_humidity;BME280_pressure;Samples;Min_cycle;Max_cycle;Signal;HPM_P1;HPM_P2
2023/10/10 00:02:07;379266.00;1.26;654.16;0.00;0.00;0.62;;;;;20.90;1.00;;;;;;2273572;40;3715;-88
2023/10/10 00:04:35;176195.00;0.59;304.94;19397.00;0.06;34.23;;;;;20.50;1.00;;;;;;2277210;61;1173;-88
2023/10/10 00:07:07;567554.00;1.89;978.23;32095.00;0.11;56.21;;;;;20.50;1.00;;;;;;2294379;40;3769;-89
2023/10/10 00:09:34;78163.00;0.26;135.86;0.00;0.00;0.62;;;;;20.60;1.00;;;;;;2277890;55;3765;-88
2023/10/10 00:12:01;276808.00;0.92;478.05;60633.00;0.20;105.57;;;;;20.60;1.00;;;;;;2282647;55;3836;-89
2023/10/10 00:14:29;291170.00;0.97;502.74;0.00;0.00;0.62;;;;;20.50;1.00;;;;;;2276367;61;1723;-88
2023/10/10 00:16:59;213365.00;0.71;368.93;15939.00;0.05;28.24;;;;;20.40;1.00;;;;;;2276610;61;1239;-86
2023/10/10 00:19:30;497295.00;1.66;857.17;102966.00;0.34;178.69;;;;;20.50;1.00;;;;;;2276540;61;1619;-88
2023/10/10 00:22:02;287910.00;0.96;497.14;0.00;0.00;0.62;;;;;20.50;1.00;;;;;;2276505;61;1480;-86
2023/10/10 00:24:31;203800.00;0.68;352.46;0.00;0.00;0.62;;;;;20.40;1.00;;;;;;2276615;61;910;-87
2023/10/10 00:27:04;374717.00;1.25;646.34;28273.00;0.09;49.59;;;;;20.10;1.00;;;;;;2276724;61;2008;-87
2023/10/10 00:29:32;410271.00;1.37;707.46;120512.00;0.40;208.97;;;;;20.10;1.00;;;;;;2276399;61;1324;-88
2023/10/10 00:32:04;257426.00;0.86;444.72;0.00;0.00;0.62;;;;;20.10;1.00;;;;;;2276613;61;1421;-86
2023/10/10 00:34:33;238454.00;0.79;412.09;0.00;0.00;0.62;;;;;20.30;1.00;;;;;;2278078;55;3713;-87
2023/10/10 00:37:07;136879.00;0.46;237.19;0.00;0.00;0.62;;;;;20.20;1.00;;;;;;2276451;61;980;-87
2023/10/10 00:39:36;454543.00;1.52;783.60;53372.00;0.18;93.02;;;;;20.30;1.00;;;;;;2276354;61;1162;-87
2023/10/10 00:42:06;529166.00;1.76;912.05;4352.00;0.01;8.16;;;;;20.30;1.00;;;;;;2276471;61;1609;-86
2023/10/10 00:44:37;256052.00;0.85;442.36;31429.00;0.10;55.06;;;;;20.30;1.00;;;;;;2276505;61;963;-87
2023/10/10 00:47:11;248024.00;0.83;428.55;0.00;0.00;0.62;;;;;20.30;1.00;;;;;;2276555;61;1939;-87
2023/10/10 00:52:17;726272.00;2.42;1252.83;35017.00;0.12;61.27;;;;;20.80;1.00;;;;;;2271090;61;1299;-88
2023/10/10 00:54:45;43379.00;0.14;75.73;0.00;0.00;0.62;;;;;20.70;1.00;;;;;;2268245;61;1324;-88
2023/10/10 00:57:17;55291.00;0.18;96.34;0.00;0.00;0.62;;;;;20.60;1.00;;;;;;2268503;61;1184;-86
2023/10/10 00:59:44;389926.00;1.30;672.49;23176.00;0.08;40.77;;;;;20.70;1.00;;;;;;2268234;61;1605;-86
2023/10/10 01:02:13;132418.00;0.44;229.50;0.00;0.00;0.62;;;;;20.80;1.00;;;;;;2268394;61;1232;-86
2023/10/10 01:04:48;391629.00;1.31;675.41;0.00;0.00;0.62;;;;;20.80;1.00;;;;;;2268219;61;1704;-86
2023/10/10 01:07:19;495389.00;1.65;853.89;53938.00;0.18;94.00;;;;;20.50;1.00;;;;;;2268202;61;2002;-88
2023/10/10 01:09:55;103992.00;0.35;180.46;0.00;0.00;0.62;;;;;20.20;1.00;;;;;;2268113;61;1644;-88
2023/10/10 01:12:23;398369.00;1.33;687.00;20440.00;0.07;36.03;;;;;20.00;1.00;;;;;;2278485;55;3808;-89
2023/10/10 01:14:54;425899.00;1.42;734.33;20790.00;0.07;36.64;;;;;19.70;1.00;;;;;;2276165;61;1009;-88
2023/10/10 01:17:25;79437.00;0.26;138.06;0.00;0.00;0.62;;;;;19.50;1.00;;;;;;2276344;61;1167;-87
2023/10/10 01:27:22;561129.00;1.87;967.15;27903.00;0.09;48.95;;;;;19.40;1.00;;;;;;2269684;61;1978;-87
2023/10/10 01:30:16;81870.00;0.27;142.27;0.00;0.00;0.62;;;;;19.40;1.00;;;;;;2268138;61;1211;-87
2023/10/10 01:32:40;397090.00;1.32;684.80;0.00;0.00;0.62;;;;;19.60;1.00;;;;;;2275156;40;3628;-87
2023/10/10 01:37:41;1190733.00;3.97;2073.47;50722.00;0.17;88.43;;;;;19.80;1.00;;;;;;2266118;61;1959;-88
2023/10/10 01:40:14;475531.00;1.59;819.71;18532.00;0.06;32.73;;;;;19.40;1.00;;;;;;2263955;61;1136;-87
2023/10/10 01:42:45;768555.00;2.56;1326.34;84495.00;0.28;146.80;;;;;19.10;1.00;;;;;;2264068;61;1724;-85
2023/10/10 01:45:18;372877.00;1.24;643.18;23265.00;0.08;40.92;;;;;19.00;1.00;;;;;;2264050;61;1636;-86
2023/10/10 01:47:56;381296.00;1.27;657.65;0.00;0.00;0.62;;;;;19.10;1.00;;;;;;2264121;61;1923;-86
2023/10/10 01:50:25;519654.00;1.73;895.67;117296.00;0.39;203.42;;;;;19.00;1.00;;;;;;2264103;61;1596;-87
2023/10/10 01:52:55;305388.00;1.02;527.18;60686.00;0.20;105.66;;;;;19.10;1.00;;;;;;2263975;61;1035;-85
2023/10/10 01:55:24;134323.00;0.45;232.78;0.00;0.00;0.62;;;;;19.20;1.00;;;;;;2264260;61;1246;-85
2023/10/10 01:57:52;101239.00;0.34;175.71;0.00;0.00;0.62;;;;;19.10;1.00;;;;;;2264190;61;1324;-86
2023/10/10 02:00:26;200493.00;0.67;346.77;0.00;0.00;0.62;;;;;19.40;1.00;;;;;;2264008;61;989;-88
2023/10/10 02:02:55;425736.00;1.42;734.05;101314.00;0.34;175.84;;;;;19.50;1.00;;;;;;2264156;61;1177;-88
2023/10/10 02:05:32;331482.00;1.10;572.03;3038.00;0.01;5.89;;;;;19.40;1.00;;;;;;2263993;61;1014;-87
2023/10/10 02:08:00;422873.00;1.41;729.13;19579.00;0.07;34.54;;;;;19.50;1.00;;;;;;2264109;61;2019;-88
2023/10/10 02:10:29;635192.00;2.12;1095.03;72966.00;0.24;126.89;;;;;19.10;1.00;;;;;;2272924;40;3612;-89
2023/10/10 02:13:00;1394102.00;4.65;2445.39;165916.00;0.55;287.23;;;;;19.10;1.00;;;;;;2322398;56;3667;-88
2023/10/10 02:15:32;952190.00;3.17;1647.97;76918.00;0.26;133.71;;;;;19.10;1.00;;;;;;2276062;61;2322;-88
2023/10/10 02:18:04;542421.00;1.81;934.90;71772.00;0.24;124.82;;;;;19.10;1.00;;;;;;2278231;55;3701;31
2023/10/10 02:20:49;750521.00;2.50;1294.96;43389.00;0.14;75.75;;;;;18.90;1.00;;;;;;2327926;40;3583;-87
2023/10/10 02:23:24;868445.00;2.89;1500.77;212879.00;0.71;368.09;;;;;18.30;1.00;;;;;;2275856;61;1622;-86
2023/10/10 02:28:44;1228326.00;4.09;2141.52;27165.00;0.09;47.68;;;;;18.10;1.00;;;;;;2269375;61;1983;-88
2023/10/10 02:31:13;765931.00;2.55;1321.77;69054.00;0.23;120.13;;;;;18.30;1.00;;;;;;2268055;61;1722;-88
2023/10/10 02:38:39;1453433.00;4.84;2555.80;107858.00;0.36;187.13;;;;;19.00;1.00;;;;;;2269650;61;1471;-86
2023/10/10 02:41:15;1065770.00;3.55;1849.32;152842.00;0.51;264.71;;;;;18.90;1.00;;;;;;2268088;61;1389;-88
2023/10/10 02:46:14;1062673.00;3.54;1843.80;36468.00;0.12;63.78;;;;;18.80;1.00;;;;;;2266004;61;1417;-88
2023/10/10 02:48:43;368136.00;1.23;635.03;16090.00;0.05;28.50;;;;;18.80;1.00;;;;;;2269141;40;3408;-86
2023/10/10 02:51:15;340121.00;1.13;586.88;0.00;0.00;0.62;;;;;18.90;1.00;;;;;;2276955;61;1462;-88
2023/10/10 02:53:46;113589.00;0.38;197.02;0.00;0.00;0.62;;;;;18.90;1.00;;;;;;2276891;61;1776;-86
2023/10/10 02:58:43;923387.00;3.08;1597.23;58401.00;0.19;101.71;;;;;19.00;1.00;;;;;;2270145;61;1309;-86
2023/10/10 03:01:49;567909.00;1.89;978.84;12431.00;0.04;22.16;;;;;18.90;1.00;;;;;;2267881;61;1361;-91
2023/10/10 03:04:09;408886.00;1.36;705.08;79508.00;0.27;138.19;;;;;18.60;1.00;;;;;;2313237;40;3783;-87
2023/10/10 03:06:35;357832.00;1.19;617.32;26422.00;0.09;46.39;;;;;18.30;1.00;;;;;;2309120;40;3813;-87
2023/10/10 03:09:13;609215.00;2.03;1050.13;124054.00;0.41;215.07;;;;;18.40;1.00;;;;;;2277051;61;1917;-89
2023/10/10 03:11:53;337914.00;1.13;583.09;0.00;0.00;0.62;;;;;18.50;1.00;;;;;;2291825;40;3586;-86
2023/10/10 03:14:26;199354.00;0.66;344.81;0.00;0.00;0.62;;;;;18.60;1.00;;;;;;2276303;61;1109;-85
2023/10/10 03:17:03;539594.00;1.80;930.02;22811.00;0.08;40.14;;;;;18.70;1.00;;;;;;2283316;56;3701;-87
2023/10/10 03:19:38;431662.00;1.44;744.24;44045.00;0.15;76.89;;;;;18.60;1.00;;;;;;2276286;61;1555;-88
2023/10/10 03:22:30;373947.00;1.25;645.02;0.00;0.00;0.62;;;;;18.60;1.00;;;;;;2276267;61;1694;-87
2023/10/10 03:25:20;407817.00;1.36;703.24;77763.00;0.26;135.17;;;;;18.60;1.00;;;;;;2276460;61;999;-87
2023/10/10 03:27:53;537866.00;1.79;927.05;77477.00;0.26;134.68;;;;;18.70;1.00;;;;;;2276100;61;2012;-87
2023/10/10 03:30:31;818033.00;2.73;1412.59;87325.00;0.29;151.69;;;;;19.00;1.00;;;;;;2276249;61;1574;-86
2023/10/10 03:33:09;706697.00;2.36;1218.85;134745.00;0.45;233.51;;;;;18.90;1.00;;;;;;2276223;61;1630;-88
2023/10/10 05:23:29;247737.00;0.83;428.06;28571.00;0.10;50.11;;;;;18.40;1.00;;;;;;2265462;61;1510;-88
2023/10/10 05:24:17;265180.00;0.88;458.06;0.00;0.00;0.62;;;;;18.50;1.00;;;;;;2281066;55;3782;-88
2023/10/10 05:26:47;556323.00;1.85;958.86;81221.00;0.27;141.15;;;;;17.90;1.00;;;;;;2307730;40;3613;-88
2023/10/10 05:29:19;659070.00;2.20;1136.33;25072.00;0.08;44.05;;;;;17.70;1.00;;;;;;2294172;55;3777;-89
2023/10/10 05:34:14;1477378.00;4.92;2600.62;0.00;0.00;0.62;;;;;17.40;1.00;;;;;;2184436;40;3537;-88
2023/10/10 05:36:44;555580.00;1.85;957.58;0.00;0.00;0.62;;;;;17.10;1.00;;;;;;2282252;40;3601;-88
2023/10/10 05:39:17;523848.00;1.75;902.89;0.00;0.00;0.62;;;;;16.80;1.00;;;;;;2276452;61;1723;-87
2023/10/10 05:41:44;834064.00;2.78;1440.60;104383.00;0.35;181.14;;;;;16.90;1.00;;;;;;2346399;40;3709;-90
2023/10/10 05:46:56;1081259.00;3.60;1876.94;70160.00;0.23;122.04;;;;;17.90;1.00;;;;;;2265716;61;1417;-88
2023/10/10 05:49:23;340165.00;1.13;586.96;108847.00;0.36;188.84;;;;;18.30;1.00;;;;;;2264280;61;1923;-87
2023/10/10 05:51:51;101574.00;0.34;176.29;0.00;0.00;0.62;;;;;18.50;1.00;;;;;;2264519;61;1258;-87
2023/10/10 05:54:18;345298.00;1.15;595.78;21714.00;0.07;38.24;;;;;18.70;1.00;;;;;;2264574;61;1698;-87
2023/10/10 05:56:47;366759.00;1.22;632.67;59901.00;0.20;104.31;;;;;19.00;1.00;;;;;;2264483;61;929;-88
2023/10/10 05:59:14;396964.00;1.32;684.59;8955.00;0.03;16.14;;;;;19.20;1.00;;;;;;2264444;61;1598;-87
2023/10/10 06:01:41;249457.00;0.83;431.02;0.00;0.00;0.62;;;;;19.30;1.00;;;;;;2264513;61;1386;-86
2023/10/10 06:04:11;216715.00;0.72;374.69;0.00;0.00;0.62;;;;;19.40;1.00;;;;;;2264588;61;2579;-87
2023/10/10 06:06:38;237012.00;0.79;409.61;0.00;0.00;0.62;;;;;19.50;1.00;;;;;;2264422;61;1232;-87
2023/10/10 06:09:05;642729.00;2.14;1108.06;113735.00;0.38;197.27;;;;;19.50;1.00;;;;;;2264190;61;2014;-87
2023/10/10 06:11:34;158871.00;0.53;275.09;0.00;0.00;0.62;;;;;19.60;1.00;;;;;;2264417;61;1413;-87
2023/10/10 06:16:30;846226.00;2.82;1461.86;0.00;0.00;0.62;;;;;19.40;1.00;;;;;;2273968;61;1482;-87
2023/10/10 06:18:57;428156.00;1.43;738.21;40825.00;0.14;71.32;;;;;19.50;1.00;;;;;;2272533;61;1235;-85
2023/10/10 06:21:26;438165.00;1.46;755.43;20970.00;0.07;36.95;;;;;19.40;1.00;;;;;;2272418;61;1380;-86
2023/10/10 06:23:53;201432.00;0.67;348.39;0.00;0.00;0.62;;;;;19.50;1.00;;;;;;2272431;61;967;-86
2023/10/10 06:26:21;439541.00;1.47;757.79;0.00;0.00;0.62;;;;;19.70;1.00;;;;;;2272620;61;1180;-86
2023/10/10 06:28:53;130578.00;0.44;226.33;0.00;0.00;0.62;;;;;19.70;1.00;;;;;;2272496;61;1919;-87
2023/10/10 06:33:57;1517996.00;5.06;2677.03;167408.00;0.56;289.80;;;;;19.40;1.00;;;;;;2279520;55;3675;-86
2023/10/10 06:41:54;393593.00;1.31;678.79;0.00;0.00;0.62;;;;;18.70;1.00;;;;;;2266555;61;1285;-87
2023/10/10 06:44:35;591211.00;1.97;1019.05;40566.00;0.14;70.87;;;;;18.50;1.00;;;;;;2268465;61;1857;-86
2023/10/10 06:47:08;347390.00;1.16;599.38;0.00;0.00;0.62;;;;;18.50;1.00;;;;;;2268428;61;2390;-87
2023/10/10 06:52:04;1646409.00;5.49;2921.77;55590.00;0.19;96.85;;;;;18.10;1.00;;;;;;2265977;61;1437;-88
2023/10/10 06:54:34;1707128.00;5.69;3039.28;295481.00;0.98;510.15;;;;;18.30;1.00;;;;;;2264337;61;1059;-87
2023/10/10 06:59:30;1078056.00;3.59;1871.22;77494.00;0.26;134.71;;;;;18.60;1.00;;;;;;2276373;55;3771;-88
2023/10/10 07:01:59;792957.00;2.64;1368.84;132502.00;0.44;229.64;;;;;18.80;1.00;;;;;;2276271;61;1663;-88
2023/10/10 07:07:00;712665.00;2.38;1229.21;42283.00;0.14;73.84;;;;;18.50;1.00;;;;;;2266731;61;1354;-88
2023/10/10 07:12:09;1511821.00;5.04;2665.38;97213.00;0.32;168.76;;;;;17.70;1.00;;;;;;2271001;61;1324;-89
2023/10/10 07:14:40;345286.00;1.15;595.76;0.00;0.00;0.62;;;;;17.90;1.00;;;;;;2359660;40;3575;-88
2023/10/10 07:17:11;275370.00;0.92;475.58;66406.00;0.22;115.55;;;;;18.20;1.00;;;;;;2277038;61;1056;-88
2023/10/10 07:19:55;240439.00;0.80;415.51;86544.00;0.29;150.34;;;;;18.50;1.00;;;;;;2277037;61;383;-90
2023/10/10 07:35:02;793202.00;2.64;1369.27;65381.00;0.22;113.78;;;;;19.70;1.00;;;;;;2288979;40;3642;-89
2023/10/10 07:55:04;1041815.00;3.47;1806.67;0.00;0.00;0.62;;;;;22.00;1.00;;;;;;2271197;61;1303;-89
2023/10/10 08:00:00;851425.00;2.84;1470.96;0.00;0.00;0.62;;;;;22.20;1.00;;;;;;2266461;61;1377;-90
2023/10/10 08:07:26;605406.00;2.02;1043.56;54922.00;0.18;95.70;;;;;22.70;1.00;;;;;;2270328;61;1423;-90
2023/10/10 08:10:13;278964.00;0.93;481.76;35458.00;0.12;62.03;;;;;22.50;1.00;;;;;;2275907;55;3858;-89
2023/10/10 08:12:42;520855.00;1.74;897.74;0.00;0.00;0.62;;;;;22.70;1.00;;;;;;2312081;40;3816;-88
2023/10/10 08:15:25;593324.00;1.98;1022.69;110385.00;0.37;191.49;;;;;22.60;1.00;;;;;;2277041;61;1672;-86
2023/10/10 08:17:54;443351.00;1.48;764.35;50687.00;0.17;88.37;;;;;22.80;1.00;;;;;;2277058;61;1615;-88
2023/10/10 08:21:08;373201.00;1.24;643.74;62448.00;0.21;108.71;;;;;22.80;1.00;;;;;;2276973;61;1613;-88
2023/10/10 08:23:24;118908.00;0.40;206.20;0.00;0.00;0.62;;;;;22.50;1.00;;;;;;2272944;61;1328;-88
2023/10/10 08:25:51;118161744.00;393.87;66829272.00;49229.00;0.16;85.85;;;;;22.30;1.00;;;;;;2272916;61;1667;-88
2023/10/10 08:28:21;260533.00;0.87;450.07;57025.00;0.19;99.33;;;;;22.50;1.00;;;;;;2272860;61;1202;-89
2023/10/10 08:30:48;333075.00;1.11;574.77;23401.00;0.08;41.16;;;;;22.40;1.00;;;;;;2272870;61;2021;-88
2023/10/10 08:33:15;569176.00;1.90;981.03;66710.00;0.22;116.07;;;;;22.30;1.00;;;;;;2272950;61;1114;-88
2023/10/10 08:35:42;271404.00;0.90;468.76;0.00;0.00;0.62;;;;;22.20;1.00;;;;;;2272941;61;970;-87
2023/10/10 08:38:09;511427.00;1.70;881.50;67966.00;0.23;118.25;;;;;21.90;1.00;;;;;;2272972;61;1104;-89
2023/10/10 08:40:40;199115.00;0.66;344.40;0.00;0.00;0.62;;;;;21.70;1.00;;;;;;2272825;61;1661;-88
2023/10/10 08:43:09;244551.00;0.82;422.58;0.00;0.00;0.62;;;;;22.20;1.00;;;;;;2272877;61;1016;-89
2023/10/10 08:45:43;81974.00;0.27;142.45;0.00;0.00;0.62;;;;;22.50;1.00;;;;;;2272801;61;1055;-88
2023/10/10 08:48:13;528632.00;1.76;911.13;32002.00;0.11;56.05;;;;;22.70;1.00;;;;;;2272883;61;1728;-89
2023/10/10 08:50:41;346811.00;1.16;598.38;90278.00;0.30;156.79;;;;;22.80;1.00;;;;;;2272657;61;1920;-87
2023/10/10 08:53:10;131868.00;0.44;228.55;0.00;0.00;0.62;;;;;23.10;1.00;;;;;;2272870;61;1745;-86
2023/10/10 08:55:38;243684.00;0.81;421.09;19288.00;0.06;34.04;;;;;23.40;1.00;;;;;;2272872;61;1185;-87
2023/10/10 08:58:07;117957256.00;393.19;66482608.00;0.00;0.00;0.62;;;;;23.40;1.00;;;;;;2272840;61;1112;-88
2023/10/10 09:00:35;239059.00;0.80;413.13;18128.00;0.06;32.03;;;;;23.20;1.00;;;;;;2272804;61;1395;-88
2023/10/10 09:03:07;620987.00;2.07;1070.47;84644.00;0.28;147.06;;;;;23.20;1.00;;;;;;2272909;61;1008;-87
2023/10/10 09:05:34;211098.00;0.70;365.02;0.00;0.00;0.62;;;;;23.00;1.00;;;;;;2272916;61;1129;-88
2023/10/10 09:08:14;143782.00;0.48;249.09;0.00;0.00;0.62;;;;;22.90;1.00;;;;;;2272907;61;1048;-87
2023/10/10 09:10:41;153136.00;0.51;265.21;0.00;0.00;0.62;;;;;22.70;1.00;;;;;;2272704;61;1997;-87
2023/10/10 09:13:09;302454.00;1.01;522.14;45233.00;0.15;78.94;;;;;22.50;1.00;;;;;;2272822;61;1106;-88
2023/10/10 09:15:52;35128.00;0.12;61.46;0.00;0.00;0.62;;;;;23.20;1.00;;;;;;2272806;61;1042;-88
2023/10/10 09:18:23;326100.00;1.09;562.78;0.00;0.00;0.62;;;;;23.80;1.00;;;;;;2272713;61;1085;-88
2023/10/10 09:20:53;295641.00;0.99;510.43;0.00;0.00;0.62;;;;;23.80;1.00;;;;;;2272729;61;1457;-89
2023/10/10 09:23:24;199270.00;0.66;344.67;0.00;0.00;0.62;;;;;24.20;1.00;;;;;;2272819;61;1546;-90
2023/10/10 09:26:09;460142.00;1.53;793.23;31257.00;0.10;54.76;;;;;24.30;1.00;;;;;;2272799;61;1041;-87
2023/10/10 09:28:48;385772.00;1.29;665.35;103524.00;0.35;179.65;;;;;24.50;1.00;;;;;;2272787;61;1747;-87
2023/10/10 09:31:26;337928.00;1.13;583.11;44285.00;0.15;77.30;;;;;24.60;1.00;;;;;;2272610;61;1930;-86
2023/10/10 09:33:55;383546.00;1.28;661.52;59281.00;0.20;103.23;;;;;24.50;1.00;;;;;;2272861;61;1114;-87
2023/10/10 09:36:26;299362.00;1.00;516.82;43729.00;0.15;76.34;;;;;24.60;1.00;;;;;;2272763;61;1683;-88
2023/10/10 09:38:57;636888.00;2.12;1097.96;37473.00;0.12;65.52;;;;;24.60;1.00;;;;;;2272788;61;1087;-88
2023/10/10 09:41:36;307480.00;1.02;530.78;0.00;0.00;0.62;;;;;24.60;1.00;;;;;;2272811;61;1471;-88
2023/10/10 09:44:53;458213.00;1.53;789.91;97133.00;0.32;168.62;;;;;24.70;1.00;;;;;;2272729;61;1102;-88
2023/10/10 09:47:40;534599.00;1.78;921.42;36919.00;0.12;64.56;;;;;24.80;1.00;;;;;;2272726;61;1254;-87
2023/10/10 09:50:37;315548.00;1.05;544.65;47445.00;0.16;82.77;;;;;25.20;1.00;;;;;;2272688;61;2014;-88
2023/10/10 09:53:19;408817.00;1.36;704.96;77691.00;0.26;135.05;;;;;25.60;1.00;;;;;;2272740;61;1115;-87
2023/10/10 09:55:47;513847.00;1.71;885.67;67501.00;0.23;117.44;;;;;25.70;1.00;;;;;;2272660;61;1057;-88
2023/10/10 09:58:27;480082.00;1.60;827.54;14924.00;0.05;26.48;;;;;25.80;1.00;;;;;;2272686;61;1038;-88
2023/10/10 10:01:04;439509.00;1.47;757.74;101122.00;0.34;175.51;;;;;25.50;1.00;;;;;;2272580;61;1274;-88
2023/10/10 10:03:49;368664.00;1.23;635.94;110136.00;0.37;191.06;;;;;25.50;1.00;;;;;;2272736;61;896;-87
2023/10/10 10:06:50;457850.00;1.53;789.29;67330.00;0.22;117.15;;;;;25.30;1.00;;;;;;2272608;61;1753;-87
2023/10/10 10:09:51;542979.00;1.81;935.86;27049.00;0.09;47.47;;;;;25.30;1.00;;;;;;2272564;61;2004;-88
2023/10/10 10:12:42;1217446.00;4.06;2121.79;119151.00;0.40;206.62;;;;;25.60;1.00;;;;;;2272237;61;1396;-88
2023/10/10 10:15:21;1016865.00;3.39;1762.36;188980.00;0.63;326.95;;;;;25.30;1.00;;;;;;2272638;61;1029;-88
2023/10/10 10:17:57;713603.00;2.38;1230.84;54620.00;0.18;95.18;;;;;25.60;1.00;;;;;;2272561;61;1705;-87
2023/10/10 10:20:32;327728.00;1.09;565.58;99767.00;0.33;173.17;;;;;25.10;1.00;;;;;;2272559;61;1428;-87
2023/10/10 10:23:00;612446.00;2.04;1055.72;181579.00;0.61;314.21;;;;;25.60;1.00;;;;;;2272654;61;963;-87
2023/10/10 10:25:32;474720.00;1.58;818.31;42143.00;0.14;73.60;;;;;25.90;1.00;;;;;;2272532;61;1452;-86
2023/10/10 10:28:10;280576.00;0.94;484.53;0.00;0.00;0.62;;;;;25.70;1.00;;;;;;2272586;61;1147;-89
2023/10/10 10:30:50;484724.00;1.62;835.53;45310.00;0.15;79.07;;;;;26.00;1.00;;;;;;2272030;61;2004;-87
2023/10/10 10:33:20;273230.00;0.91;471.90;22983.00;0.08;40.44;;;;;26.10;1.00;;;;;;2272574;61;2295;-87
2023/10/10 10:36:15;185542.00;0.62;321.03;0.00;0.00;0.62;;;;;26.00;1.00;;;;;;2272528;61;1015;-88
2023/10/10 10:41:42;553054.00;1.84;953.22;77655.00;0.26;134.99;;;;;26.20;1.00;;;;;;2272270;61;1386;-89
2023/10/10 10:44:12;481248.00;1.60;829.55;74206.00;0.25;129.03;;;;;25.80;1.00;;;;;;2272576;61;922;-89
2023/10/10 10:46:41;570462.00;1.90;983.24;176168.00;0.59;304.89;;;;;25.60;1.00;;;;;;2272544;61;1163;-87
2023/10/10 10:49:12;444732.00;1.48;766.72;35470.00;0.12;62.05;;;;;25.80;1.00;;;;;;2272407;61;2221;-86
2023/10/10 10:51:41;348376.00;1.16;601.07;39989.00;0.13;69.87;;;;;25.80;1.00;;;;;;2272403;61;1994;-87
2023/10/10 10:54:35;464731.00;1.55;801.12;23802.00;0.08;41.85;;;;;25.90;1.00;;;;;;2272482;61;1072;-88
2023/10/10 10:57:02;203716.00;0.68;352.32;5548.00;0.02;10.24;;;;;26.10;1.00;;;;;;2272471;61;1241;-87
2023/10/10 10:59:35;441684.00;1.47;761.48;72822.00;0.24;126.64;;;;;26.30;1.00;;;;;;2272347;61;988;-87
2023/10/10 11:02:13;412547.00;1.38;711.38;122017.00;0.41;211.56;;;;;26.20;1.00;;;;;;2272495;61;1448;-88
2023/10/10 11:04:43;127375.00;0.42;220.80;0.00;0.00;0.62;;;;;26.20;1.00;;;;;;2272475;61;1196;-87
2023/10/10 11:07:16;534137.00;1.78;920.62;66081.00;0.22;114.99;;;;;26.30;1.00;;;;;;2272438;61;1193;-86
2023/10/10 11:09:52;595941.00;1.99;1027.21;171045.00;0.57;296.07;;;;;26.70;1.00;;;;;;2272412;61;1919;-88
2023/10/10 11:12:31;469904.00;1.57;810.02;64945.00;0.22;113.02;;;;;26.60;1.00;;;;;;2272263;61;1375;-88
2023/10/10 11:14:59;259025.00;0.86;447.47;0.00;0.00;0.62;;;;;26.90;1.00;;;;;;2272445;61;1082;-89
2023/10/10 11:17:26;786234.00;2.62;1357.13;138649.00;0.46;240.24;;;;;27.00;1.00;;;;;;2272389;61;984;-89
2023/10/10 11:19:54;159291.00;0.53;275.82;0.00;0.00;0.62;;;;;26.90;1.00;;;;;;2272498;61;1003;-88
2023/10/10 11:25:11;241952.00;0.81;418.11;0.00;0.00;0.62;;;;;27.40;1.00;;;;;;2272256;61;1226;-87
2023/10/10 11:27:44;343339.00;1.14;592.41;7906.00;0.03;14.32;;;;;27.30;1.00;;;;;;2272365;61;958;-87
2023/10/10 11:30:19;479179.00;1.60;825.98;82905.00;0.28;144.06;;;;;27.40;1.00;;;;;;2272283;61;1981;-88
2023/10/10 11:32:47;249634.00;0.83;431.32;60771.00;0.20;105.81;;;;;27.50;1.00;;;;;;2272325;61;1479;-86
2023/10/10 11:35:25;80456.00;0.27;139.82;0.00;0.00;0.62;;;;;27.50;1.00;;;;;;2272394;61;1006;-87
2023/10/10 11:38:05;742905.00;2.48;1281.72;209306.00;0.70;361.94;;;;;27.50;1.00;;;;;;2272361;61;1264;-87
2023/10/10 11:40:34;787542.00;2.63;1359.41;65640.00;0.22;114.23;;;;;27.60;1.00;;;;;;2272338;61;1289;-87
2023/10/10 11:43:04;260081.00;0.87;449.29;0.00;0.00;0.62;;;;;27.40;1.00;;;;;;2272297;61;931;-87
2023/10/10 11:45:39;461900.00;1.54;796.25;12633.00;0.04;22.51;;;;;27.10;1.00;;;;;;2272408;61;917;-88
2023/10/10 11:48:12;250890.00;0.84;433.48;0.00;0.00;0.62;;;;;27.20;1.00;;;;;;2272386;61;1037;-85
2023/10/10 11:50:46;122591.00;0.41;212.55;0.00;0.00;0.62;;;;;27.10;1.00;;;;;;2272291;61;1919;-87
2023/10/10 11:53:15;339194.00;1.13;585.29;17256.00;0.06;30.52;;;;;27.30;1.00;;;;;;2272374;61;1103;-89
2023/10/10 11:55:43;729901.00;2.43;1259.13;124145.00;0.41;215.23;;;;;27.20;1.00;;;;;;2272243;61;1333;-88
2023/10/10 11:58:16;878226.00;2.93;1517.91;26742.00;0.09;46.94;;;;;26.80;1.00;;;;;;2272142;61;1679;-86
2023/10/10 12:00:43;496177.00;1.65;855.24;30902.00;0.10;54.14;;;;;27.20;1.00;;;;;;2272260;61;1791;-88
2023/10/10 12:03:10;1222462.00;4.07;2130.88;236650.00;0.79;408.99;;;;;27.50;1.00;;;;;;2272210;61;1038;-88
2023/10/10 12:05:38;1268560.00;4.23;2214.68;164976.00;0.55;285.61;;;;;27.70;1.00;;;;;;2272224;61;1023;-87
2023/10/10 12:08:08;1242187.00;4.14;2166.68;266474.00;0.89;460.28;;;;;27.80;1.00;;;;;;2272309;61;1132;-87
2023/10/10 12:10:49;425321.00;1.42;733.34;68870.00;0.23;119.81;;;;;27.50;1.00;;;;;;2272194;61;2008;-89
2023/10/10 12:13:33;1476159.00;4.92;2598.34;278209.00;0.93;480.46;;;;;27.70;1.00;;;;;;2272208;61;1122;-88
2023/10/10 12:16:01;765000.00;2.55;1320.15;64035.00;0.21;111.45;;;;;27.90;1.00;;;;;;2272190;61;1578;-90
2023/10/10 12:18:31;819407.00;2.73;1414.99;68333.00;0.23;118.88;;;;;28.00;1.00;;;;;;2272202;61;1714;-89
2023/10/10 12:20:58;953106.00;3.18;1649.59;133714.00;0.45;231.73;;;;;28.40;1.00;;;;;;2272175;61;1785;-89
2023/10/10 12:23:26;1291787.00;4.31;2257.08;255216.00;0.85;440.92;;;;;28.30;1.00;;;;;;2272265;61;945;-88
2023/10/10 12:25:54;1576022.00;5.25;2787.00;162675.00;0.54;281.65;;;;;28.20;1.00;;;;;;2272360;61;936;-88
2023/10/10 12:28:22;853552.00;2.85;1474.68;57129.00;0.19;99.51;;;;;28.10;1.00;;;;;;2272294;61;1432;-87
2023/10/10 12:30:49;1340709.00;4.47;2346.80;71452.00;0.24;124.27;;;;;28.00;1.00;;;;;;2272250;61;2013;-88
2023/10/10 12:33:16;792986.00;2.64;1368.89;143832.00;0.48;249.18;;;;;28.30;1.00;;;;;;2272097;61;1073;-89
2023/10/10 12:35:46;1093676.00;3.65;1899.12;70169.00;0.23;122.05;;;;;28.50;1.00;;;;;;2272873;61;920;-89
2023/10/10 12:38:20;1102772.00;3.68;1915.38;43260.00;0.14;75.53;;;;;28.60;1.00;;;;;;2272918;61;1291;-89
2023/10/10 12:40:47;1129464.00;3.76;1963.20;90791.00;0.30;157.67;;;;;28.60;1.00;;;;;;2272773;61;1632;-87
2023/10/10 12:43:14;1193366.00;3.98;2078.23;129228.00;0.43;224.00;;;;;28.60;1.00;;;;;;2272860;61;920;-89
2023/10/10 12:45:43;1076322.00;3.59;1868.13;81433.00;0.27;141.51;;;;;28.50;1.00;;;;;;2272837;61;1437;-89
2023/10/10 12:48:14;960035.00;3.20;1661.81;117031.00;0.39;202.96;;;;;28.70;1.00;;;;;;2272843;61;1161;-90
2023/10/10 12:50:42;1259032.00;4.20;2197.32;98230.00;0.33;170.52;;;;;28.90;1.00;;;;;;2272864;61;1994;-90
2023/10/10 12:53:09;1169064.00;3.90;2034.39;101955.00;0.34;176.95;;;;;28.90;1.00;;;;;;2272936;61;1093;-89
2023/10/10 12:55:46;917800.00;3.06;1587.40;126045.00;0.42;218.51;;;;;29.20;1.00;;;;;;2272892;61;1307;-89
2023/10/10 12:58:16;1368987.00;4.56;2398.93;154434.00;0.51;267.45;;;;;29.10;1.00;;;;;;2272937;61;1101;-89
2023/10/10 13:00:51;1183327.00;3.94;2060.10;180679.00;0.60;312.66;;;;;29.20;1.00;;;;;;2272705;61;1714;-87
2023/10/10 13:03:23;917343.00;3.06;1586.60;0.00;0.00;0.62;;;;;29.10;1.00;;;;;;2272766;61;1119;-87
2023/10/10 13:06:04;934109.00;3.11;1616.11;162928.00;0.54;282.08;;;;;29.20;1.00;;;;;;2272788;61;1162;-90
2023/10/10 13:08:39;458440.00;1.53;790.30;57452.00;0.19;100.07;;;;;29.40;1.00;;;;;;2272781;61;1280;-89
2023/10/10 13:11:14;635271.00;2.12;1095.16;124645.00;0.42;216.09;;;;;29.10;1.00;;;;;;2272746;61;2002;-88
2023/10/10 13:13:46;525368.00;1.75;905.51;4137.00;0.01;7.79;;;;;28.50;1.00;;;;;;2272822;61;1179;-87
2023/10/10 13:16:23;457191.00;1.52;788.15;40268.00;0.13;70.35;;;;;28.30;1.00;;;;;;2272657;61;1649;-87